createdAt,value
2018-04-01T03:02:06.446Z,10.70
2018-04-01T03:04:34.836Z,9.70
2018-04-01T03:07:03.175Z,9.97
2018-04-01T03:09:30.794Z,7.97
2018-04-01T03:11:58.356Z,8.80
2018-04-01T03:14:25.935Z,9.07
2018-04-01T03:16:53.526Z,13.97
2018-04-01T03:19:21.097Z,8.67
2018-04-01T03:21:48.683Z,7.33
2018-04-01T03:24:17.021Z,9.13
2018-04-01T03:26:44.612Z,7.20
2018-04-01T03:29:12.948Z,10.67
2018-04-01T03:31:41.553Z,6.63
2018-04-01T03:34:09.130Z,7.60
2018-04-01T03:36:36.725Z,5.97
2018-04-01T03:39:04.293Z,7.00
2018-04-01T03:41:31.896Z,5.53
2018-04-01T03:43:59.458Z,7.70
2018-04-01T03:46:27.050Z,4.07
2018-04-01T03:48:55.382Z,6.40
2018-04-01T03:51:22.972Z,4.20
2018-04-01T03:53:51.306Z,7.40
2018-04-01T03:56:18.903Z,6.23
2018-04-01T03:58:46.473Z,5.13
2018-04-01T04:01:14.837Z,4.90
2018-04-01T04:03:42.408Z,9.17
2018-04-01T04:06:10.001Z,6.43
2018-04-01T04:08:37.581Z,5.33
2018-04-01T04:11:05.164Z,7.13
2018-04-01T04:13:32.730Z,8.13
2018-04-01T04:16:00.317Z,5.87
2018-04-01T04:18:28.649Z,6.40
2018-04-01T04:20:56.240Z,4.20
2018-04-01T04:23:23.809Z,6.27
2018-04-01T04:25:51.401Z,5.77
2018-04-01T04:28:18.965Z,7.37
2018-04-01T04:30:46.532Z,6.73
2018-04-01T04:33:14.886Z,8.53
2018-04-01T04:35:43.207Z,5.97
2018-04-01T04:38:10.809Z,10.47
2018-04-01T04:40:39.149Z,6.33
2018-04-01T04:43:06.744Z,4.60
2018-04-01T04:45:35.077Z,5.63
2018-04-01T04:48:02.681Z,8.10
2018-04-01T04:50:31.032Z,7.40
2018-04-01T04:52:58.618Z,5.60
2018-04-01T04:55:26.186Z,11.87
2018-04-01T04:57:54.545Z,6.53
2018-04-01T05:00:22.204Z,5.77
2018-04-01T05:02:49.794Z,14.67
2018-04-01T05:05:18.126Z,8.00
2018-04-01T05:07:45.716Z,6.80
2018-04-01T05:10:13.281Z,10.73
2018-04-01T05:12:41.643Z,5.90
2018-04-01T05:15:09.205Z,10.07
2018-04-01T05:17:36.793Z,8.47
2018-04-01T05:20:05.127Z,5.83
2018-04-01T05:22:32.719Z,7.23
2018-04-01T05:25:01.053Z,9.27
2018-04-01T05:27:28.638Z,8.90
2018-04-01T05:29:56.226Z,9.60
2018-04-01T05:32:24.582Z,6.07
2018-04-01T05:34:52.145Z,8.33
2018-04-01T05:37:19.736Z,8.07
2018-04-01T05:39:47.311Z,11.97
2018-04-01T05:42:14.904Z,7.93
2018-04-01T05:44:42.469Z,10.37
2018-04-01T05:47:10.824Z,9.90
2018-04-01T05:49:38.392Z,11.17
2018-04-01T05:52:05.981Z,7.73
2018-04-01T05:54:33.551Z,5.70
2018-04-01T05:57:01.143Z,9.03
2018-04-01T05:59:28.714Z,9.87
2018-04-01T06:01:56.306Z,9.73
2018-04-01T06:04:24.644Z,6.73
2018-04-01T06:06:52.237Z,7.00
2018-04-01T06:09:19.832Z,12.03
2018-04-01T06:11:48.190Z,13.27
2018-04-01T06:14:15.774Z,10.73
2018-04-01T06:16:43.362Z,11.40
2018-04-01T06:19:10.940Z,10.40
2018-04-01T06:21:38.541Z,11.10
2018-04-01T06:24:06.112Z,12.40
2018-04-01T06:26:33.684Z,23.73
2018-04-01T06:29:02.045Z,19.70
2018-04-01T06:31:30.399Z,13.13
2018-04-01T06:33:58.050Z,21.70
2018-04-01T06:36:25.590Z,22.23
2018-04-01T06:38:53.182Z,11.30
2018-04-01T06:41:20.835Z,16.70
2018-04-01T06:43:49.361Z,11.53
2018-04-01T06:46:17.696Z,8.20
2018-04-01T06:48:46.055Z,10.17
2018-04-01T06:51:13.621Z,9.93
2018-04-01T06:53:41.208Z,10.10
2018-04-01T06:56:08.777Z,13.43
2018-04-01T06:58:36.373Z,12.67
2018-04-01T07:01:03.936Z,15.70
2018-04-01T07:03:31.533Z,12.47
2018-04-01T07:05:59.102Z,10.93
2018-04-01T07:08:26.692Z,14.63
2018-04-01T07:10:54.260Z,13.60
2018-04-01T07:13:22.620Z,10.47
2018-04-01T07:15:50.204Z,15.00
2018-04-01T07:18:18.561Z,11.77
2018-04-01T07:20:46.166Z,11.07
2018-04-01T07:23:13.732Z,11.23
2018-04-01T07:25:41.326Z,12.20
2018-04-01T07:28:08.910Z,12.53
2018-04-01T07:30:36.500Z,11.83
2018-04-01T07:33:04.074Z,12.73
2018-04-01T07:35:31.666Z,14.70
2018-04-01T07:37:59.240Z,13.70
2018-04-01T07:40:26.892Z,13.57
2018-04-01T07:42:54.468Z,12.83
2018-04-01T07:45:22.070Z,16.37
2018-04-01T07:47:49.651Z,13.90
2018-04-01T07:50:17.240Z,15.13
2018-04-01T07:52:44.839Z,15.73
2018-04-01T07:55:12.413Z,12.33
2018-04-01T07:57:40.005Z,12.53
2018-04-01T08:00:07.595Z,12.33
2018-04-01T08:02:35.201Z,15.20
2018-04-01T08:05:02.806Z,14.33
2018-04-01T08:07:30.386Z,15.90
2018-04-01T08:09:58.736Z,12.43
2018-04-01T08:12:26.308Z,14.93
2018-04-01T08:14:53.961Z,13.30
2018-04-01T08:17:21.496Z,11.73
2018-04-01T08:19:49.073Z,13.40
2018-04-01T08:22:16.680Z,8.83
2018-04-01T08:24:45.013Z,12.97
2018-04-01T08:27:12.608Z,12.97
2018-04-01T08:29:40.942Z,13.10
2018-04-01T08:32:09.318Z,13.80
2018-04-01T08:34:37.665Z,12.70
2018-04-01T08:37:05.265Z,12.27
2018-04-01T08:39:32.837Z,12.47
2018-04-01T08:42:00.455Z,15.57
2018-04-01T08:44:28.057Z,10.70
2018-04-01T08:46:55.642Z,12.30
2018-04-01T08:49:24.006Z,13.93
2018-04-01T08:51:51.581Z,10.93
2018-04-01T08:54:19.940Z,10.50
2018-04-01T08:56:47.508Z,11.27
2018-04-01T08:59:15.108Z,10.90
2018-04-01T09:01:42.676Z,11.57
2018-04-01T09:04:10.265Z,10.63
2018-04-01T09:06:37.848Z,10.10
2018-04-01T09:09:05.436Z,8.33
2018-04-01T09:11:33.773Z,11.13
2018-04-01T09:14:01.368Z,9.30
2018-04-01T09:16:28.954Z,9.97
2018-04-01T09:18:56.540Z,9.43
2018-04-01T09:21:24.111Z,9.83
2018-04-01T09:23:51.712Z,11.20
2018-04-01T09:26:20.052Z,10.70
2018-04-01T09:28:47.648Z,12.47
2018-04-01T09:31:16.026Z,11.80
2018-04-01T09:33:44.376Z,11.80
2018-04-01T09:36:11.950Z,8.70
2018-04-01T09:38:39.537Z,8.63
2018-04-01T09:41:07.106Z,9.07
2018-04-01T09:43:34.693Z,11.93
2018-04-01T09:46:02.290Z,11.00
2018-04-01T09:48:29.868Z,12.50
2018-04-01T09:51:01.841Z,10.53
2018-04-01T09:53:29.413Z,13.67
2018-04-01T09:55:57.130Z,11.73
2018-04-01T09:58:24.873Z,10.57
2018-04-01T10:00:58.589Z,12.30
2018-04-01T10:03:26.720Z,13.27
2018-04-01T10:05:54.797Z,10.70
2018-04-01T10:08:23.132Z,10.83
2018-04-01T10:10:51.522Z,14.13
2018-04-01T10:13:19.852Z,12.03
2018-04-01T10:15:48.928Z,12.27
2018-04-01T10:18:17.272Z,11.70
2018-04-01T10:20:45.876Z,11.07
2018-04-01T10:23:14.249Z,11.83
2018-04-01T10:25:42.580Z,10.50
2018-04-01T10:28:11.689Z,10.53
2018-04-01T10:30:40.016Z,10.47
2018-04-01T10:33:09.228Z,5.93
2018-04-01T10:35:38.535Z,4.30
2018-04-01T10:38:06.855Z,4.97
2018-04-01T10:40:35.175Z,6.37
2018-04-01T10:43:03.497Z,6.20
2018-04-01T10:45:31.797Z,5.47
2018-04-01T10:48:00.124Z,6.03
2018-04-01T10:50:28.421Z,4.57
2018-04-01T10:53:00.665Z,5.17
2018-04-01T10:55:28.469Z,7.80
2018-04-01T10:57:56.098Z,6.83
2018-04-01T11:00:23.694Z,5.67
2018-04-01T11:02:51.272Z,9.90
2018-04-01T11:05:19.644Z,5.37
2018-04-01T11:07:47.976Z,5.43
2018-04-01T11:10:15.578Z,6.40
2018-04-01T11:12:43.149Z,4.87
2018-04-01T11:15:11.553Z,6.13
2018-04-01T11:17:43.121Z,5.43
2018-04-01T11:20:14.080Z,5.30
2018-04-01T11:22:41.653Z,5.50
2018-04-01T11:25:09.242Z,5.43
2018-04-01T11:27:37.581Z,5.70
2018-04-01T11:30:05.473Z,4.80
2018-04-01T11:32:33.088Z,6.00
2018-04-01T11:35:00.808Z,5.80
2018-04-01T11:37:29.152Z,5.70
2018-04-01T11:39:56.769Z,6.30
2018-04-01T11:42:24.338Z,6.50
2018-04-01T11:44:51.937Z,5.97
2018-04-01T11:47:19.513Z,6.47
2018-04-01T11:49:47.109Z,4.60
2018-04-01T11:52:14.676Z,5.90
2018-04-01T11:54:42.278Z,6.03
2018-04-01T11:57:09.845Z,5.77
2018-04-01T11:59:37.448Z,4.90
2018-04-01T12:02:05.032Z,4.43
2018-04-01T12:04:32.625Z,4.47
2018-04-01T12:07:00.202Z,5.07
2018-04-01T12:09:28.567Z,4.27
2018-04-01T12:11:56.140Z,2.40
2018-04-01T12:14:23.774Z,1.77
2018-04-01T12:16:51.316Z,2.07
2018-04-01T12:19:18.900Z,4.57
2018-04-01T12:21:46.464Z,1.93
2018-04-01T12:24:14.051Z,2.33
2018-04-01T12:26:42.388Z,3.20
2018-04-01T12:29:09.973Z,4.73
2018-04-01T12:31:37.543Z,3.33
2018-04-01T12:34:05.180Z,3.93
2018-04-01T12:36:32.747Z,2.70
2018-04-01T12:39:00.335Z,2.90
2018-04-01T12:41:28.753Z,3.33
2018-04-01T12:43:56.344Z,3.10
2018-04-01T12:46:23.917Z,3.20
2018-04-01T12:48:51.528Z,2.80
2018-04-01T12:51:19.088Z,3.30
2018-04-01T12:53:46.676Z,3.97
2018-04-01T12:56:15.045Z,4.30
2018-04-01T12:58:42.621Z,4.03
2018-04-01T13:01:10.275Z,3.90
2018-04-01T13:03:37.876Z,4.30
2018-04-01T13:06:06.213Z,4.57
2018-04-01T13:08:33.779Z,5.17
2018-04-01T13:11:02.368Z,4.47
2018-04-01T13:13:30.920Z,10.20
2018-04-01T13:15:58.500Z,5.30
2018-04-01T13:18:26.067Z,6.70
2018-04-01T13:20:53.668Z,5.23
2018-04-01T13:23:21.997Z,3.97
2018-04-01T13:25:49.596Z,3.80
2018-04-01T13:28:17.936Z,5.20
2018-04-01T13:30:45.612Z,4.37
2018-04-01T13:33:13.188Z,12.43
2018-04-01T13:35:40.784Z,5.70
2018-04-01T13:38:08.387Z,5.37
2018-04-01T13:40:36.728Z,6.97
2018-04-01T13:43:04.328Z,6.63
2018-04-01T13:45:31.924Z,6.80
2018-04-01T13:48:00.277Z,7.80
2018-04-01T13:50:27.957Z,9.57
2018-04-01T13:52:55.501Z,5.83
2018-04-01T13:55:23.070Z,7.20
2018-04-01T13:57:50.656Z,7.77
2018-04-01T14:00:20.012Z,5.50
2018-04-01T14:02:47.578Z,7.53
2018-04-01T14:05:15.165Z,5.03
2018-04-01T14:07:43.488Z,4.23
2018-04-01T14:10:11.160Z,6.73
2018-04-01T14:12:38.722Z,3.73
2018-04-01T14:15:06.308Z,4.53
2018-04-01T14:17:33.872Z,4.97
2018-04-01T14:20:01.458Z,7.20
2018-04-01T14:22:29.785Z,4.00
2018-04-01T14:24:57.383Z,4.50
2018-04-01T14:27:25.733Z,4.00
2018-04-01T14:29:53.328Z,6.33
2018-04-01T14:32:21.664Z,4.70
2018-04-01T14:34:49.261Z,4.90
2018-04-01T14:37:17.588Z,4.40
2018-04-01T14:39:45.185Z,4.83
2018-04-01T14:42:12.756Z,4.33
2018-04-01T14:44:41.100Z,5.60
2018-04-01T14:47:08.663Z,5.97
2018-04-01T14:49:36.257Z,5.10
2018-04-01T14:52:04.585Z,5.00
2018-04-01T14:54:32.169Z,5.37
2018-04-01T14:56:59.741Z,5.07
2018-04-01T14:59:28.309Z,4.60
2018-04-01T15:01:55.936Z,5.50
2018-04-01T15:04:23.528Z,4.40
2018-04-01T15:06:51.095Z,4.80
2018-04-01T15:09:18.681Z,6.40
2018-04-01T15:11:47.006Z,4.40
2018-04-01T15:14:14.604Z,4.73
2018-04-01T15:16:42.950Z,6.60
2018-04-01T15:19:11.403Z,6.63
2018-04-01T15:21:38.994Z,11.00
2018-04-01T15:24:06.567Z,6.00
2018-04-01T15:26:34.152Z,5.80
2018-04-01T15:29:02.493Z,8.03
2018-04-01T15:31:30.084Z,6.33
2018-04-01T15:33:57.648Z,13.23
2018-04-01T15:36:25.246Z,4.90
2018-04-01T15:38:52.823Z,5.03
2018-04-01T15:41:20.456Z,5.83
2018-04-01T15:43:48.025Z,6.27
2018-04-01T15:46:15.612Z,5.73
2018-04-01T15:48:43.177Z,5.63
2018-04-01T15:51:10.769Z,22.30
2018-04-01T15:53:38.349Z,9.20
2018-04-01T15:56:06.697Z,7.13
2018-04-01T15:58:34.265Z,7.90
2018-04-01T16:01:01.853Z,9.60
2018-04-01T16:03:29.442Z,8.80
2018-04-01T16:05:57.024Z,7.23
2018-04-01T16:08:24.588Z,10.20
2018-04-01T16:10:52.176Z,9.87
2018-04-01T16:13:20.523Z,7.47
2018-04-01T16:15:48.110Z,5.13
2018-04-01T16:18:15.681Z,3.23
2018-04-01T16:20:44.028Z,3.90
2018-04-01T16:23:11.601Z,7.00
2018-04-01T16:25:39.196Z,5.10
2018-04-01T16:28:06.758Z,5.50
2018-04-01T16:30:34.346Z,13.47
2018-04-01T16:33:01.918Z,8.17
2018-04-01T16:35:29.510Z,8.37
2018-04-01T16:37:57.124Z,5.40
2018-04-01T16:40:24.714Z,7.50
2018-04-01T16:42:52.344Z,5.17
2018-04-01T16:45:20.669Z,4.33
2018-04-01T16:47:48.236Z,5.23
2018-04-01T16:50:15.855Z,5.23
2018-04-01T16:52:43.420Z,7.00
2018-04-01T16:55:11.014Z,8.30
2018-04-01T16:57:38.588Z,10.47
2018-04-01T17:00:06.945Z,8.30
2018-04-01T17:02:34.509Z,9.97
2018-04-01T17:05:03.178Z,10.20
2018-04-01T17:07:30.753Z,8.53
2018-04-01T17:09:58.396Z,11.57
2018-04-01T17:12:25.965Z,8.90
2018-04-01T17:14:53.524Z,8.60
2018-04-01T17:17:21.112Z,6.57
2018-04-01T17:19:49.450Z,9.97
2018-04-01T17:22:17.033Z,8.00
2018-04-01T17:24:44.629Z,7.70
2018-04-01T17:27:12.228Z,7.17
2018-04-01T17:29:39.788Z,9.90
2018-04-01T17:32:07.383Z,10.10
2018-04-01T17:34:35.732Z,6.33
2018-04-01T17:37:03.360Z,8.10
2018-04-01T17:39:30.936Z,10.43
2018-04-01T17:41:58.542Z,9.83
2018-04-01T17:44:26.147Z,11.30
2018-04-01T17:46:53.732Z,4.87
2018-04-01T17:49:22.068Z,7.67
2018-04-01T17:51:49.675Z,12.10
2018-04-01T17:54:17.248Z,8.10
2018-04-01T17:56:44.852Z,6.13
2018-04-01T17:59:12.417Z,8.97
2018-04-01T18:01:40.005Z,6.43
2018-04-01T18:04:07.597Z,5.90
2018-04-01T18:06:35.164Z,13.00
2018-04-01T18:09:03.521Z,5.80
2018-04-01T18:11:31.086Z,6.03
2018-04-01T18:13:58.684Z,6.80
2018-04-01T18:16:26.247Z,11.83
2018-04-01T18:18:53.833Z,6.57
2018-04-01T18:21:21.428Z,13.47
2018-04-01T18:23:48.995Z,5.73
2018-04-01T18:26:16.584Z,8.20
2018-04-01T18:28:44.153Z,7.23
2018-04-01T18:31:12.525Z,6.43
2018-04-01T18:33:40.097Z,9.27
2018-04-01T18:36:07.716Z,9.80
2018-04-01T18:38:35.277Z,8.63
2018-04-01T18:41:02.868Z,9.87
2018-04-01T18:43:30.480Z,8.73
2018-04-01T18:45:58.072Z,7.43
2018-04-01T18:48:26.405Z,8.93
2018-04-01T18:50:53.988Z,10.67
2018-04-01T18:53:21.561Z,11.00
2018-04-01T18:55:49.161Z,10.60
2018-04-01T18:58:16.729Z,12.30
2018-04-01T19:00:44.325Z,11.37
2018-04-01T19:03:11.896Z,12.07
2018-04-01T19:05:39.506Z,12.70
2018-04-01T19:08:07.116Z,14.73
2018-04-01T19:10:34.693Z,12.60
2018-04-01T19:13:03.051Z,11.90
2018-04-01T19:15:30.632Z,17.70
2018-04-01T19:17:59.492Z,14.67
2018-04-01T19:20:28.560Z,13.90
2018-04-01T19:22:56.897Z,14.43
2018-04-01T19:25:25.212Z,14.20
2018-04-01T19:27:53.557Z,16.30
2018-04-01T19:30:21.856Z,17.50
2018-04-01T19:32:50.209Z,13.63
2018-04-01T19:35:18.518Z,20.10
2018-04-01T19:37:46.842Z,18.30
2018-04-01T19:40:15.171Z,22.90
2018-04-01T19:42:43.508Z,22.07
2018-04-01T19:45:11.820Z,22.13
2018-04-01T19:47:40.153Z,19.60
2018-04-01T19:50:08.478Z,24.70
2018-04-01T19:52:36.812Z,35.17
2018-04-01T19:55:05.126Z,31.47
2018-04-01T19:57:33.458Z,31.00
2018-04-01T20:00:02.532Z,37.43
2018-04-01T20:05:32.017Z,55.60
2018-04-01T20:08:00.345Z,49.47
2018-04-01T20:10:29.430Z,20.23
2018-04-01T20:12:57.761Z,15.23
2018-04-01T20:15:26.064Z,15.40
2018-04-01T20:17:54.449Z,18.60
2018-04-01T20:20:22.770Z,17.27
2018-04-01T20:22:51.113Z,15.37
2018-04-01T20:25:19.420Z,15.50
2018-04-01T20:27:48.492Z,14.93
2018-04-01T20:30:16.827Z,15.10
2018-04-01T20:32:45.145Z,15.93
2018-04-01T20:35:13.481Z,15.37
2018-04-01T20:37:41.797Z,13.57
2018-04-01T20:40:10.130Z,14.83
2018-04-01T20:42:38.496Z,13.93
2018-04-01T20:45:06.821Z,14.13
2018-04-01T20:47:35.188Z,9.00
2018-04-01T20:50:03.527Z,9.80
2018-04-01T20:52:31.831Z,13.73
2018-04-01T20:55:00.158Z,11.70
2018-04-01T20:57:29.226Z,12.00
2018-04-01T20:59:57.556Z,13.60
2018-04-01T21:02:25.897Z,10.57
2018-04-01T21:04:54.196Z,13.63
2018-04-01T21:07:23.411Z,13.23
2018-04-01T21:09:51.727Z,11.13
2018-04-01T21:12:20.120Z,13.90
2018-04-01T21:14:48.469Z,10.37
2018-04-01T21:17:16.769Z,12.60
2018-04-01T21:19:46.600Z,13.77
2018-04-01T21:22:14.904Z,10.00
2018-04-01T21:24:43.244Z,11.57
2018-04-01T21:27:11.552Z,13.03
2018-04-01T21:29:40.616Z,12.77
2018-04-01T21:32:08.940Z,11.50
2018-04-01T21:34:37.245Z,10.97
2018-04-01T21:37:05.572Z,11.57
2018-04-01T21:39:34.641Z,13.47
2018-04-01T21:42:02.965Z,10.87
2018-04-01T21:44:32.085Z,15.10
2018-04-01T21:47:00.416Z,13.10
2018-04-01T21:49:29.493Z,12.93
2018-04-01T21:51:57.821Z,17.40
2018-04-01T21:54:26.137Z,15.03
2018-04-01T21:56:55.229Z,15.10
2018-04-01T21:59:23.541Z,15.50
2018-04-01T22:01:52.623Z,14.53
2018-04-01T22:04:20.950Z,15.10
2018-04-01T22:06:49.283Z,17.20
2018-04-01T22:09:17.593Z,17.53
2018-04-01T22:11:45.928Z,17.93
2018-04-01T22:14:14.310Z,15.57
2018-04-01T22:16:42.590Z,17.20
2018-04-01T22:19:10.896Z,15.63
2018-04-01T22:21:39.228Z,15.50
2018-04-01T22:24:07.625Z,17.20
2018-04-01T22:26:35.956Z,15.70
2018-04-01T22:29:04.275Z,14.47
2018-04-01T22:31:32.617Z,15.53
2018-04-01T22:34:00.926Z,16.60
2018-04-01T22:36:29.232Z,19.60
2018-04-01T22:38:58.365Z,13.87
2018-04-01T22:44:26.529Z,15.63
2018-04-01T22:46:55.620Z,16.33
2018-04-01T22:49:24.701Z,17.57
